Time;durP1;ratioP1;P1;durP2;ratioP2;P2;SDS_P1;SDS_P2;PMS_P1;PMS_P2;Temp;Humidity;BMP_temperature;BMP_pressure;BME280_temperature;BME280_humidity;BME280_pressure;Samples;Min_cycle;Max_cycle;Signal;HPM_P1;HPM_P2
2022/05/17 00:01:38;;;;;;;8.10;3.93;;;18.90;75.60;;;;;;4995256;28;20502;-65
2022/05/17 00:04:05;;;;;;;2.90;2.70;;;18.90;76.00;;;;;;4995332;28;20451;-66
2022/05/17 00:06:33;;;;;;;5.43;3.20;;;18.90;76.30;;;;;;4995296;28;20440;-66
2022/05/17 00:09:00;;;;;;;5.23;3.30;;;18.90;76.30;;;;;;4995097;28;20448;-66
2022/05/17 00:11:28;;;;;;;4.97;3.13;;;18.90;76.20;;;;;;4995365;28;20437;-66
2022/05/17 00:13:55;;;;;;;4.63;2.93;;;18.90;76.20;;;;;;4994873;28;20455;-66
2022/05/17 00:16:22;;;;;;;4.80;3.23;;;18.80;76.20;;;;;;4994627;28;20989;-66
2022/05/17 00:18:50;;;;;;;3.57;3.23;;;18.80;76.50;;;;;;4995020;28;20479;-67
2022/05/17 00:21:16;;;;;;;6.37;3.77;;;18.80;76.90;;;;;;4993763;28;20456;-68
2022/05/17 00:23:45;;;;;;;3.63;3.07;;;18.80;76.90;;;;;;4994364;28;20448;-68
2022/05/17 00:26:12;;;;;;;4.50;3.40;;;18.80;77.30;;;;;;4994362;28;20448;-68
2022/05/17 00:28:39;;;;;;;5.03;3.70;;;18.80;77.40;;;;;;4994137;28;20472;-68
2022/05/17 00:31:07;;;;;;;11.57;3.37;;;18.70;77.50;;;;;;4994194;28;20460;-67
2022/05/17 00:33:34;;;;;;;4.80;3.43;;;18.70;77.60;;;;;;4994195;28;20514;-68
2022/05/17 00:36:01;;;;;;;5.20;3.43;;;18.60;77.50;;;;;;4994055;28;20516;-68
2022/05/17 00:38:28;;;;;;;4.13;3.37;;;18.60;77.80;;;;;;4993742;28;20469;-68
2022/05/17 00:40:56;;;;;;;6.17;3.70;;;18.60;77.80;;;;;;4994094;28;20448;-68
2022/05/17 00:43:29;;;;;;;3.33;2.70;;;18.50;77.50;;;;;;4994570;28;20444;-66
2022/05/17 00:46:01;;;;;;;4.70;3.40;;;18.40;77.10;;;;;;4994359;28;20428;-66
2022/05/17 00:48:29;;;;;;;3.63;3.17;;;18.30;77.00;;;;;;4994195;28;20889;-66
2022/05/17 00:50:56;;;;;;;5.60;3.43;;;18.30;77.10;;;;;;4994045;28;20436;-66
2022/05/17 00:53:27;;;;;;;5.83;3.67;;;18.20;76.90;;;;;;4994247;28;20448;-65
2022/05/17 00:55:58;;;;;;;5.87;3.10;;;18.10;76.80;;;;;;4994277;28;20472;-65
2022/05/17 00:58:28;;;;;;;5.70;3.30;;;18.10;77.00;;;;;;4994174;28;20539;-65
2022/05/17 01:01:02;;;;;;;5.80;3.90;;;18.00;76.80;;;;;;4956996;28;1090212;-66
2022/05/17 01:03:33;;;;;;;5.20;3.23;;;18.00;77.00;;;;;;4995852;28;20280;-65
2022/05/17 01:06:02;;;;;;;4.40;2.90;;;18.00;77.10;;;;;;4995033;28;20491;-66
2022/05/17 01:08:30;;;;;;;6.63;3.97;;;17.90;76.90;;;;;;4995310;28;20475;-66
2022/05/17 01:10:58;;;;;;;9.83;4.70;;;17.90;77.20;;;;;;4994977;28;20448;-65
2022/05/17 01:16:10;;;;;;;6.60;3.63;;;17.90;77.60;;;;;;4973688;28;20475;-67
2022/05/17 01:18:40;;;;;;;6.13;3.40;;;17.90;77.50;;;;;;4994245;28;20464;-67
2022/05/17 01:21:08;;;;;;;5.30;4.13;;;17.80;77.60;;;;;;4994277;28;20451;-68
2022/05/17 01:23:35;;;;;;;6.03;4.70;;;17.80;77.80;;;;;;4994259;28;20440;-68
2022/05/17 01:26:02;;;;;;;5.50;4.10;;;17.70;77.80;;;;;;4994196;28;20502;-67
2022/05/17 01:28:33;;;;;;;5.90;4.10;;;17.70;78.10;;;;;;4994154;28;20467;-66
2022/05/17 01:31:03;;;;;;;11.63;4.20;;;17.70;78.30;;;;;;4993912;28;20440;-66
2022/05/17 01:33:32;;;;;;;5.07;3.60;;;17.60;78.20;;;;;;4993282;28;20440;-67
2022/05/17 01:35:59;;;;;;;5.93;3.43;;;17.60;78.20;;;;;;4994087;28;20603;-66
2022/05/17 01:38:27;;;;;;;5.87;3.57;;;17.60;78.20;;;;;;4993957;28;20495;-66
2022/05/17 01:40:54;;;;;;;6.53;4.33;;;17.60;78.30;;;;;;4994132;28;20463;-66
2022/05/17 01:43:21;;;;;;;5.03;3.37;;;17.60;78.40;;;;;;4994062;28;20460;-68
2022/05/17 01:45:47;;;;;;;7.60;4.20;;;17.60;78.50;;;;;;4993976;28;20444;-66
2022/05/17 01:48:14;;;;;;;6.70;3.70;;;17.50;78.50;;;;;;4994049;28;20472;-66
2022/05/17 01:50:41;;;;;;;5.33;3.90;;;17.50;78.70;;;;;;4994242;28;20448;-66
2022/05/17 01:53:08;;;;;;;5.57;3.93;;;17.50;78.80;;;;;;4993773;28;20452;-66
2022/05/17 01:55:36;;;;;;;6.13;3.73;;;17.40;78.60;;;;;;4994000;28;20452;-66
2022/05/17 01:58:04;;;;;;;7.67;3.63;;;17.40;79.00;;;;;;4994167;28;20472;-68
2022/05/17 02:00:31;;;;;;;6.80;4.00;;;17.40;79.00;;;;;;4994086;28;20456;-67
2022/05/17 02:02:57;;;;;;;8.50;4.27;;;17.30;78.80;;;;;;4994542;28;20447;-66
2022/05/17 02:05:26;;;;;;;7.33;4.13;;;17.30;78.90;;;;;;4994655;28;20456;-66
2022/05/17 02:07:53;;;;;;;7.80;3.60;;;17.30;79.10;;;;;;4994477;28;20977;-66
2022/05/17 02:10:20;;;;;;;4.70;3.50;;;17.20;79.20;;;;;;4995143;28;20455;-66
2022/05/17 02:12:48;;;;;;;10.73;4.10;;;17.10;79.00;;;;;;4995293;28;20452;-68
2022/05/17 02:15:15;;;;;;;4.17;3.30;;;17.00;79.30;;;;;;4995442;28;20448;-68
2022/05/17 02:17:42;;;;;;;7.27;4.00;;;17.00;79.50;;;;;;4995533;28;20495;-67
2022/05/17 02:20:10;;;;;;;9.73;4.13;;;17.00;79.70;;;;;;4996394;28;20452;-68
2022/05/17 02:22:36;;;;;;;4.83;4.03;;;17.00;79.60;;;;;;4993771;28;20460;-68
2022/05/17 02:25:04;;;;;;;7.20;3.83;;;17.00;79.70;;;;;;4993346;28;20951;-66
2022/05/17 02:27:32;;;;;;;8.47;3.97;;;17.00;79.70;;;;;;4993646;28;20476;-68
2022/05/17 02:30:00;;;;;;;4.73;3.87;;;17.00;79.70;;;;;;4993272;28;20938;-68
2022/05/17 02:32:27;;;;;;;7.83;3.83;;;17.00;79.50;;;;;;4993624;28;20507;-68
2022/05/17 02:34:53;;;;;;;9.17;4.13;;;17.00;79.60;;;;;;4993679;28;20447;-68
2022/05/17 02:37:20;;;;;;;5.70;4.03;;;17.00;79.80;;;;;;4993500;28;20492;-69
2022/05/17 02:39:47;;;;;;;9.30;4.00;;;17.00;80.00;;;;;;4993637;28;20448;-69
2022/05/17 02:42:13;;;;;;;7.40;3.20;;;17.00;79.90;;;;;;4993594;28;20443;-68
2022/05/17 02:44:40;;;;;;;5.13;3.93;;;16.90;79.90;;;;;;4994759;28;20452;-68
2022/05/17 02:47:10;;;;;;;8.10;3.93;;;17.00;80.20;;;;;;4996968;28;20464;-67
2022/05/17 02:49:38;;;;;;;8.50;4.20;;;17.00;80.20;;;;;;4996837;28;20448;-67
2022/05/17 02:52:05;;;;;;;8.33;4.70;;;17.00;80.30;;;;;;4996656;28;20456;-67
2022/05/17 02:54:32;;;;;;;7.47;4.50;;;16.90;80.40;;;;;;4996867;28;20451;-67
2022/05/17 02:56:59;;;;;;;7.43;4.07;;;16.90;80.70;;;;;;4996326;28;20891;-68
2022/05/17 02:59:26;;;;;;;7.37;4.50;;;16.90;81.10;;;;;;4996631;28;20456;-67
2022/05/17 03:01:53;;;;;;;7.57;3.53;;;16.90;81.10;;;;;;4996322;28;20460;-66
2022/05/17 03:04:21;;;;;;;5.73;4.23;;;16.80;80.90;;;;;;4996694;28;20498;-66
2022/05/17 03:06:48;;;;;;;5.80;3.80;;;16.80;80.90;;;;;;4996254;28;21049;-66
2022/05/17 03:09:15;;;;;;;10.83;4.30;;;16.70;81.10;;;;;;4996584;28;20449;-67
2022/05/17 03:11:43;;;;;;;16.33;5.43;;;16.70;81.50;;;;;;4996619;28;20451;-68
2022/05/17 03:14:10;;;;;;;10.13;4.20;;;16.60;81.80;;;;;;4996522;28;20547;-68
2022/05/17 03:16:38;;;;;;;8.83;4.20;;;16.60;82.10;;;;;;4996031;28;21079;-68
2022/05/17 03:19:05;;;;;;;6.70;3.90;;;16.60;82.30;;;;;;4996412;28;20463;-67
2022/05/17 03:21:34;;;;;;;7.57;4.60;;;16.60;82.10;;;;;;4996428;28;20450;-67
2022/05/17 03:24:01;;;;;;;7.83;3.97;;;16.60;82.10;;;;;;4996311;28;20444;-68
2022/05/17 03:26:28;;;;;;;9.43;4.50;;;16.60;82.20;;;;;;4996191;28;20444;-67
2022/05/17 03:28:56;;;;;;;8.47;4.37;;;16.60;82.40;;;;;;4997037;28;20802;-67
2022/05/17 03:31:23;;;;;;;6.73;4.10;;;16.50;82.40;;;;;;4996155;28;20544;-67
2022/05/17 03:33:50;;;;;;;7.33;4.00;;;16.50;82.70;;;;;;4996184;28;20433;-66
2022/05/17 03:36:17;;;;;;;7.10;4.70;;;16.50;83.10;;;;;;4996050;28;20483;-64
2022/05/17 03:38:45;;;;;;;6.97;4.07;;;16.60;83.60;;;;;;4996104;28;20472;-65
2022/05/17 03:41:11;;;;;;;11.03;4.80;;;16.50;83.80;;;;;;4995837;28;20950;-64
2022/05/17 03:43:38;;;;;;;9.27;4.90;;;16.60;84.40;;;;;;4996131;28;20456;-64
2022/05/17 03:46:09;;;;;;;11.37;4.80;;;16.60;84.70;;;;;;4996602;28;20448;-65
2022/05/17 03:48:36;;;;;;;5.83;4.03;;;16.60;85.10;;;;;;4996582;28;20475;-67
2022/05/17 03:51:11;;;;;;;6.20;4.13;;;16.70;85.40;;;;;;4995880;28;20456;-67
2022/05/17 03:53:37;;;;;;;7.37;4.50;;;16.70;85.60;;;;;;4995861;28;20432;-68
2022/05/17 03:56:06;;;;;;;9.40;4.83;;;16.80;85.90;;;;;;4994727;28;20452;-68
2022/05/17 03:58:32;;;;;;;8.17;4.80;;;16.80;85.90;;;;;;4995592;28;20464;-67
2022/05/17 04:00:59;;;;;;;5.60;3.50;;;16.80;86.10;;;;;;4995268;28;20877;-67
2022/05/17 04:03:26;;;;;;;6.67;4.70;;;16.80;85.90;;;;;;4995632;28;20444;-68
2022/05/17 04:05:52;;;;;;;7.30;4.97;;;16.80;86.30;;;;;;4995610;28;20479;-67
2022/05/17 04:08:19;;;;;;;10.03;4.10;;;16.80;86.60;;;;;;4995161;28;20977;-66
2022/05/17 04:10:46;;;;;;;9.60;4.33;;;16.80;86.70;;;;;;4995148;28;20794;-66
2022/05/17 04:13:14;;;;;;;7.00;4.30;;;16.80;86.90;;;;;;4995420;28;20448;-66
2022/05/17 04:15:41;;;;;;;8.00;4.70;;;16.90;87.20;;;;;;4995056;28;20456;-66
2022/05/17 04:18:09;;;;;;;6.13;3.50;;;17.00;88.20;;;;;;4994833;28;20484;-66
2022/05/17 04:20:36;;;;;;;11.83;4.37;;;17.00;87.50;;;;;;4995284;28;20452;-66
2022/05/17 04:23:03;;;;;;;12.10;5.23;;;17.00;87.80;;;;;;4994924;28;20451;-66
2022/05/17 04:25:29;;;;;;;14.60;5.23;;;17.10;88.30;;;;;;4995255;28;20456;-66
2022/05/17 04:27:56;;;;;;;8.27;3.87;;;17.20;88.80;;;;;;4994763;28;20989;-67
2022/05/17 04:30:25;;;;;;;9.90;5.07;;;17.20;89.10;;;;;;4994832;28;20448;-67
2022/05/17 04:32:52;;;;;;;6.27;4.60;;;17.30;89.50;;;;;;4995131;28;20463;-67
2022/05/17 04:35:19;;;;;;;8.33;4.20;;;17.40;90.00;;;;;;4995089;28;20448;-67
2022/05/17 04:37:45;;;;;;;9.13;4.70;;;17.40;90.00;;;;;;4994710;28;20507;-67
2022/05/17 04:40:13;;;;;;;9.30;4.50;;;17.50;90.00;;;;;;4994904;28;20475;-68
2022/05/17 04:42:43;;;;;;;9.17;5.00;;;17.50;88.20;;;;;;4994914;28;20451;-68
2022/05/17 04:45:13;;;;;;;9.00;4.50;;;17.60;88.00;;;;;;4994908;28;20429;-67
2022/05/17 04:47:42;;;;;;;7.73;4.53;;;17.60;87.70;;;;;;4994729;28;20461;-67
2022/05/17 04:50:10;;;;;;;9.23;5.53;;;17.60;87.60;;;;;;4994806;28;20444;-68
2022/05/17 04:52:37;;;;;;;7.33;4.10;;;17.70;87.60;;;;;;4995004;28;20447;-68
2022/05/17 04:55:04;;;;;;;7.87;5.07;;;17.70;88.30;;;;;;4994621;28;20440;-67
2022/05/17 04:57:31;;;;;;;9.93;5.10;;;17.70;89.90;;;;;;4994483;28;20491;-68
2022/05/17 04:59:59;;;;;;;6.60;4.23;;;17.80;89.40;;;;;;4994144;28;20817;-67
2022/05/17 05:02:26;;;;;;;10.93;4.20;;;17.80;88.00;;;;;;4994576;28;20445;-68
2022/05/17 05:04:54;;;;;;;10.53;5.00;;;17.90;87.10;;;;;;4994535;28;20453;-68
2022/05/17 05:07:21;;;;;;;4.70;4.00;;;18.00;88.30;;;;;;4994259;28;20487;-68
2022/05/17 05:09:48;;;;;;;9.87;5.23;;;18.00;88.60;;;;;;4994419;28;20555;-67
2022/05/17 05:12:15;;;;;;;5.67;4.43;;;18.00;89.10;;;;;;4994388;28;20809;-68
2022/05/17 05:14:42;;;;;;;5.17;4.23;;;18.10;89.80;;;;;;4994424;28;20474;-68
2022/05/17 05:17:09;;;;;;;6.90;5.03;;;18.10;90.50;;;;;;4994240;28;20487;-68
2022/05/17 05:19:36;;;;;;;12.53;5.37;;;18.10;90.80;;;;;;4994293;28;20539;-67
2022/05/17 05:22:04;;;;;;;6.50;4.30;;;18.10;90.80;;;;;;4994301;28;20448;-67
2022/05/17 05:24:32;;;;;;;12.60;4.63;;;18.20;88.10;;;;;;4994312;28;20468;-68
2022/05/17 05:26:59;;;;;;;6.63;4.17;;;18.20;87.60;;;;;;4994168;28;20474;-67
2022/05/17 05:29:26;;;;;;;9.43;4.03;;;18.30;87.20;;;;;;4994190;28;20548;-67
2022/05/17 05:31:53;;;;;;;12.43;4.70;;;18.30;86.70;;;;;;4993774;28;20999;-67
2022/05/17 05:34:21;;;;;;;6.97;4.07;;;18.40;87.10;;;;;;4994213;28;20459;-67
2022/05/17 05:36:48;;;;;;;8.03;4.30;;;18.50;87.80;;;;;;4994009;28;20499;-67
2022/05/17 05:39:16;;;;;;;8.63;4.43;;;18.60;87.90;;;;;;4994099;28;20822;-66
2022/05/17 05:41:43;;;;;;;7.77;4.57;;;18.70;88.20;;;;;;4994378;28;20448;-67
2022/05/17 05:44:11;;;;;;;9.10;3.83;;;18.70;87.20;;;;;;4994619;28;20463;-68
2022/05/17 05:46:38;;;;;;;8.50;4.70;;;18.80;87.70;;;;;;4994732;28;20448;-67
2022/05/17 05:49:04;;;;;;;5.57;4.00;;;18.90;88.30;;;;;;4995578;28;20456;-68
2022/05/17 05:51:31;;;;;;;10.60;4.47;;;19.00;88.20;;;;;;4996237;28;20487;-68
2022/05/17 05:53:58;;;;;;;7.83;3.90;;;19.10;87.70;;;;;;4996860;28;20456;-67
2022/05/17 05:56:26;;;;;;;7.00;4.20;;;19.20;87.20;;;;;;4995453;28;20455;-68
2022/05/17 05:58:53;;;;;;;9.07;4.60;;;19.30;86.70;;;;;;4993744;28;20484;-68
2022/05/17 06:01:19;;;;;;;7.87;4.40;;;19.40;86.50;;;;;;4993701;28;20476;-68
2022/05/17 06:03:46;;;;;;;8.67;5.37;;;19.50;86.30;;;;;;4993539;28;20977;-68
2022/05/17 06:06:14;;;;;;;12.53;5.30;;;19.60;84.80;;;;;;4993532;28;21009;-68
2022/05/17 06:08:41;;;;;;;8.10;4.20;;;19.70;82.80;;;;;;4993791;28;20468;-68
2022/05/17 06:11:08;;;;;;;7.90;4.50;;;19.70;83.10;;;;;;4993765;28;20444;-67
2022/05/17 06:13:36;;;;;;;8.97;4.50;;;19.80;83.20;;;;;;4994934;28;20448;-67
2022/05/17 06:16:03;;;;;;;6.50;5.20;;;19.90;83.30;;;;;;4995264;28;20456;-68
2022/05/17 06:18:30;;;;;;;5.70;5.10;;;20.00;83.10;;;;;;4993688;28;21012;-66
2022/05/17 06:21:00;;;;;;;6.20;5.10;;;20.10;82.80;;;;;;4997100;28;20499;-66
2022/05/17 06:23:27;;;;;;;6.53;5.37;;;20.10;82.80;;;;;;4997432;28;20454;-66
2022/05/17 06:25:54;;;;;;;7.23;5.63;;;20.20;83.10;;;;;;4997498;28;20452;-66
2022/05/17 06:28:21;;;;;;;10.57;5.30;;;20.30;83.30;;;;;;4996957;28;21055;-66
2022/05/17 06:30:49;;;;;;;6.30;4.30;;;20.40;83.20;;;;;;4997251;28;20444;-66
2022/05/17 06:33:16;;;;;;;5.17;4.63;;;20.50;82.70;;;;;;4997327;28;20447;-66
2022/05/17 06:35:45;;;;;;;9.30;5.43;;;20.60;81.90;;;;;;4997349;28;20464;-66
2022/05/17 06:38:12;;;;;;;10.60;5.77;;;20.70;80.70;;;;;;4997124;28;20516;-66
2022/05/17 06:40:39;;;;;;;6.50;4.80;;;20.80;80.20;;;;;;4997151;28;20428;-66
2022/05/17 06:43:06;;;;;;;7.73;4.07;;;20.90;79.30;;;;;;4997156;28;20452;-66
2022/05/17 06:45:33;;;;;;;11.77;4.57;;;21.10;78.20;;;;;;4997069;28;20444;-66
2022/05/17 06:48:02;;;;;;;9.37;4.80;;;21.20;76.70;;;;;;4996959;28;20519;-66
2022/05/17 06:50:29;;;;;;;8.17;5.30;;;21.40;75.90;;;;;;4997017;28;20452;-66
2022/05/17 06:52:55;;;;;;;6.30;4.10;;;21.60;75.90;;;;;;4996883;28;20444;-66
2022/05/17 06:55:23;;;;;;;15.87;5.67;;;21.70;75.40;;;;;;4996846;28;20455;-65
2022/05/17 06:57:50;;;;;;;10.33;5.97;;;21.80;74.50;;;;;;4996655;28;20488;-65
2022/05/17 07:00:19;;;;;;;10.17;6.20;;;21.90;74.40;;;;;;4996547;28;20464;-65
2022/05/17 07:02:46;;;;;;;9.93;6.43;;;22.10;75.20;;;;;;4996743;28;20507;-65
2022/05/17 07:05:14;;;;;;;9.37;5.10;;;22.20;74.60;;;;;;4996374;28;20455;-65
2022/05/17 07:07:41;;;;;;;7.33;5.30;;;22.30;73.90;;;;;;4996218;28;20475;-65
2022/05/17 07:13:08;;;;;;;12.73;4.73;;;22.50;72.30;;;;;;4996715;28;20902;-65
2022/05/17 07:15:35;;;;;;;8.60;5.40;;;22.60;71.70;;;;;;4996631;28;20443;-65
2022/05/17 07:18:02;;;;;;;12.57;5.53;;;22.80;71.10;;;;;;4996285;28;20488;-66
2022/05/17 07:20:30;;;;;;;10.30;5.70;;;22.90;71.50;;;;;;4996504;28;20445;-65
2022/05/17 07:22:57;;;;;;;10.03;5.20;;;23.10;71.30;;;;;;4996193;28;20949;-65
2022/05/17 07:25:24;;;;;;;11.70;6.63;;;23.20;70.50;;;;;;4996437;28;20448;-65
2022/05/17 07:27:51;;;;;;;8.53;5.30;;;23.30;70.60;;;;;;4996358;28;20472;-66
2022/05/17 07:30:18;;;;;;;8.07;4.90;;;23.40;70.10;;;;;;4996282;28;20444;-66
2022/05/17 07:32:46;;;;;;;9.73;5.53;;;23.60;68.50;;;;;;4995987;28;20460;-66
2022/05/17 07:35:13;;;;;;;13.23;5.20;;;23.80;67.90;;;;;;4996002;28;20468;-66
2022/05/17 07:37:41;;;;;;;10.50;4.30;;;23.90;66.90;;;;;;4995903;28;20512;-66
2022/05/17 07:40:10;;;;;;;12.93;5.60;;;24.10;65.90;;;;;;4995794;28;20440;-66
2022/05/17 07:42:36;;;;;;;9.70;6.10;;;24.30;65.20;;;;;;4995993;28;20583;-66
2022/05/17 07:45:04;;;;;;;9.93;4.70;;;24.50;65.10;;;;;;4995999;28;20540;-66
2022/05/17 07:47:30;;;;;;;9.10;4.00;;;24.70;63.70;;;;;;4995842;28;20475;-66
2022/05/17 07:49:57;;;;;;;6.30;3.53;;;24.90;62.80;;;;;;4995853;28;20455;-66
2022/05/17 07:52:24;;;;;;;7.27;4.70;;;25.10;61.60;;;;;;4995574;28;20451;-66
2022/05/17 07:54:52;;;;;;;8.87;4.30;;;25.40;60.90;;;;;;4995773;28;20500;-66
2022/05/17 07:57:19;;;;;;;7.57;4.80;;;25.60;60.40;;;;;;4995583;28;20534;-66
2022/05/17 07:59:46;;;;;;;14.20;5.70;;;25.80;59.70;;;;;;4995555;28;20539;-66
2022/05/17 08:02:13;;;;;;;10.37;5.33;;;26.00;58.60;;;;;;4995643;28;20464;-66
2022/05/17 08:04:39;;;;;;;8.43;4.43;;;26.20;57.80;;;;;;4995273;28;20814;-66
2022/05/17 08:07:08;;;;;;;7.70;4.37;;;26.40;57.90;;;;;;4995489;28;20481;-66
2022/05/17 08:09:35;;;;;;;14.13;4.80;;;26.60;57.50;;;;;;4995577;28;20523;-66
2022/05/17 08:12:07;;;;;;;6.93;3.47;;;26.70;56.40;;;;;;4995506;28;20440;-66
2022/05/17 08:14:34;;;;;;;8.80;3.73;;;26.80;54.30;;;;;;4995557;28;20444;-66
2022/05/17 08:17:02;;;;;;;6.43;3.10;;;26.80;52.20;;;;;;4995303;28;20464;-66
2022/05/17 08:19:28;;;;;;;7.50;4.10;;;26.80;51.60;;;;;;4994958;28;20480;-66
2022/05/17 08:21:55;;;;;;;10.40;4.50;;;26.70;51.50;;;;;;4995001;28;20452;-66
2022/05/17 08:24:22;;;;;;;10.67;4.30;;;26.70;51.40;;;;;;4995200;28;20452;-66
2022/05/17 08:29:34;;;;;;;11.57;3.50;;;26.70;51.40;;;;;;4995263;28;20900;-66
2022/05/17 08:34:46;;;;;;;7.80;3.00;;;26.70;50.80;;;;;;4995197;28;20400;-66
2022/05/17 08:37:13;;;;;;;6.80;2.77;;;26.70;50.70;;;;;;4994964;28;20468;-66
2022/05/17 08:39:40;;;;;;;5.23;2.67;;;26.80;51.50;;;;;;4994561;28;20825;-66
2022/05/17 08:42:18;;;;;;;9.50;3.67;;;27.00;51.70;;;;;;4994470;28;20477;-66
2022/05/17 08:44:50;;;;;;;9.43;3.13;;;27.10;50.30;;;;;;4994917;28;20436;-66
2022/05/17 08:47:22;;;;;;;12.70;2.90;;;27.20;49.60;;;;;;4994516;28;20488;-66
2022/05/17 08:49:56;;;;;;;6.23;3.17;;;27.30;49.60;;;;;;4994532;28;20929;-66
2022/05/17 08:52:25;;;;;;;8.53;2.70;;;27.40;49.50;;;;;;4994841;28;20437;-66
2022/05/17 08:54:56;;;;;;;7.30;2.80;;;27.60;49.20;;;;;;4994655;28;20432;-66
2022/05/17 08:57:30;;;;;;;5.27;1.63;;;27.70;48.80;;;;;;4994644;28;20464;-66
2022/05/17 09:00:03;;;;;;;5.43;2.30;;;27.70;47.90;;;;;;4994276;28;20465;-66
2022/05/17 09:02:39;;;;;;;5.47;2.00;;;27.80;48.00;;;;;;4995147;28;20421;-66
2022/05/17 09:05:15;;;;;;;4.90;2.10;;;27.90;46.80;;;;;;4994290;28;20795;-66
2022/05/17 09:07:48;;;;;;;4.10;2.40;;;28.00;47.00;;;;;;4994404;28;20472;-66
2022/05/17 09:10:23;;;;;;;4.67;1.90;;;28.00;46.10;;;;;;4994265;28;20428;-66
2022/05/17 09:12:55;;;;;;;8.20;2.97;;;28.00;45.40;;;;;;4994488;28;20441;-66
2022/05/17 09:15:23;;;;;;;7.80;2.57;;;28.00;44.80;;;;;;4994426;28;20857;-66
2022/05/17 09:17:50;;;;;;;5.57;2.00;;;27.90;44.80;;;;;;4994002;28;20976;-66
2022/05/17 09:20:21;;;;;;;6.73;2.40;;;27.90;44.80;;;;;;4994067;28;20457;-66
2022/05/17 09:22:50;;;;;;;6.20;2.00;;;28.00;44.90;;;;;;4995281;28;20892;-66
2022/05/17 09:25:20;;;;;;;6.10;1.80;;;28.10;45.50;;;;;;4994447;28;20479;-66
2022/05/17 09:27:50;;;;;;;5.30;1.83;;;28.30;45.50;;;;;;4994685;28;20476;-66
2022/05/17 09:30:34;;;;;;;4.60;1.90;;;28.50;45.20;;;;;;4994576;28;20957;-66
2022/05/17 09:33:02;;;;;;;3.67;1.57;;;28.70;45.20;;;;;;4995133;28;20432;-66
2022/05/17 09:35:29;;;;;;;5.03;2.67;;;28.80;45.00;;;;;;4994897;28;20825;-66
2022/05/17 09:37:59;;;;;;;3.60;2.00;;;29.10;45.00;;;;;;4994461;28;20977;-66
2022/05/17 09:40:28;;;;;;;4.80;1.73;;;29.20;42.90;;;;;;4994651;28;20455;-66
2022/05/17 09:43:04;;;;;;;5.63;1.53;;;29.20;42.20;;;;;;4994178;28;20933;-66
2022/05/17 09:45:58;;;;;;;5.20;1.93;;;29.20;42.50;;;;;;4994094;28;20471;-66
2022/05/17 09:48:33;;;;;;;4.50;1.63;;;29.20;41.40;;;;;;4984398;28;20912;-66
2022/05/17 09:53:49;;;;;;;2.80;1.20;;;29.20;40.80;;;;;;4994007;28;20894;-66
2022/05/17 09:56:17;;;;;;;4.00;1.70;;;29.20;40.80;;;;;;4998044;28;20437;-66
2022/05/17 09:58:45;;;;;;;3.20;1.40;;;29.10;39.40;;;;;;4997804;28;20582;-66
2022/05/17 10:01:16;;;;;;;8.80;2.20;;;29.00;40.10;;;;;;4997415;28;20467;-66
2022/05/17 10:03:58;;;;;;;3.17;1.73;;;28.80;40.80;;;;;;4997875;28;20433;-66
2022/05/17 10:06:31;;;;;;;5.37;1.40;;;28.70;40.40;;;;;;4997804;28;20503;-67
2022/05/17 10:09:01;;;;;;;2.17;1.20;;;28.60;41.50;;;;;;4997503;28;20913;-66
2022/05/17 10:11:39;;;;;;;3.00;1.37;;;28.60;41.80;;;;;;4997448;28;20941;-66
2022/05/17 10:14:20;;;;;;;3.80;1.00;;;28.50;40.80;;;;;;4997498;28;20945;-66
2022/05/17 10:16:51;;;;;;;2.60;1.20;;;28.40;40.90;;;;;;4997920;28;20472;-66
2022/05/17 10:19:31;;;;;;;3.23;1.20;;;28.30;41.10;;;;;;4997551;28;20472;-66
2022/05/17 10:22:02;;;;;;;2.60;1.13;;;28.30;40.90;;;;;;4997480;28;21013;-66
2022/05/17 10:24:36;;;;;;;2.63;1.60;;;28.30;40.90;;;;;;4998228;28;20439;-66
2022/05/17 10:27:09;;;;;;;5.70;1.50;;;28.50;42.20;;;;;;4997488;28;20531;-66
2022/05/17 10:29:44;;;;;;;4.90;2.13;;;28.60;43.00;;;;;;4997215;28;20846;-67
2022/05/17 10:32:23;;;;;;;3.30;1.10;;;28.80;43.10;;;;;;4997272;28;20446;-66
2022/05/17 10:34:54;;;;;;;3.00;1.43;;;29.10;40.90;;;;;;4998045;28;20436;-66
2022/05/17 10:37:28;;;;;;;2.60;1.40;;;29.30;38.80;;;;;;4997478;28;20483;-66
2022/05/17 10:39:57;;;;;;;3.37;1.37;;;29.40;38.20;;;;;;4997295;28;20471;-66
2022/05/17 10:42:27;;;;;;;3.53;1.40;;;29.50;38.10;;;;;;4996873;28;20444;-66
2022/05/17 10:44:55;;;;;;;1.73;1.30;;;29.60;38.40;;;;;;4997138;28;20455;-66
2022/05/17 10:47:46;;;;;;;3.10;1.20;;;29.50;37.20;;;;;;4997018;28;20471;-66
2022/05/17 10:50:23;;;;;;;2.20;1.23;;;29.50;38.20;;;;;;4997199;28;20433;-66
2022/05/17 10:53:00;;;;;;;4.37;1.53;;;29.50;39.20;;;;;;4997207;28;20470;-66
2022/05/17 10:55:35;;;;;;;4.27;1.40;;;29.50;38.90;;;;;;4997072;28;20432;-66
2022/05/17 10:58:10;;;;;;;2.57;1.70;;;29.60;38.90;;;;;;4997091;28;20460;-66
2022/05/17 11:00:42;;;;;;;4.67;2.10;;;29.70;38.50;;;;;;4997046;28;20463;-66
2022/05/17 11:03:49;;;;;;;2.20;1.23;;;29.80;38.20;;;;;;4997686;28;20433;-66
2022/05/17 11:06:26;;;;;;;2.73;1.50;;;29.70;37.10;;;;;;4996085;28;20471;-66
2022/05/17 11:09:02;;;;;;;4.70;1.83;;;29.60;37.50;;;;;;4996569;28;20907;-66
2022/05/17 11:12:05;;;;;;;5.47;1.90;;;29.50;38.60;;;;;;4997015;28;20443;-66
2022/05/17 11:14:38;;;;;;;2.53;1.40;;;29.40;39.70;;;;;;4986465;28;20817;-66
2022/05/17 11:17:13;;;;;;;2.07;1.03;;;29.40;39.90;;;;;;4996289;28;20473;-66
2022/05/17 11:19:45;;;;;;;1.50;1.20;;;29.50;40.10;;;;;;4996120;28;20991;-66
2022/05/17 11:22:19;;;;;;;6.40;2.00;;;29.60;40.20;;;;;;4996632;28;20930;-66
2022/05/17 11:25:10;;;;;;;3.90;1.97;;;29.90;40.70;;;;;;4996415;28;20452;-66
2022/05/17 11:28:02;;;;;;;3.53;1.60;;;30.30;39.60;;;;;;4996242;28;20801;-66
2022/05/17 11:30:34;;;;;;;4.57;1.43;;;30.90;39.00;;;;;;4996274;28;20436;-66
2022/05/17 11:33:11;;;;;;;3.37;1.80;;;31.60;37.90;;;;;;4996293;28;20428;-66
2022/05/17 11:35:48;;;;;;;3.37;1.47;;;32.30;36.20;;;;;;4995942;28;20435;-66
2022/05/17 11:38:20;;;;;;;3.40;2.20;;;32.70;34.50;;;;;;4996015;28;20545;-64
2022/05/17 11:40:57;;;;;;;5.73;2.40;;;33.10;34.50;;;;;;4995750;28;20436;-66
2022/05/17 11:43:46;;;;;;;5.40;1.80;;;33.30;34.80;;;;;;4996134;28;20530;-66
2022/05/17 11:46:43;;;;;;;3.70;1.70;;;33.50;34.20;;;;;;4996187;28;20464;-66
2022/05/17 11:49:31;;;;;;;3.50;2.20;;;33.70;33.80;;;;;;4995772;28;20914;-67
2022/05/17 11:52:23;;;;;;;3.57;2.30;;;33.80;33.50;;;;;;4996071;28;20436;-67
2022/05/17 11:54:51;;;;;;;4.73;2.57;;;33.90;33.80;;;;;;4995900;28;20432;-67
2022/05/17 12:00:51;;;;;;;4.00;2.20;;;34.00;33.70;;;;;;4993212;28;20866;-67
2022/05/17 12:03:54;;;;;;;3.50;2.40;;;34.20;33.50;;;;;;4995731;28;20445;-67
2022/05/17 12:06:39;;;;;;;8.20;2.67;;;34.40;32.80;;;;;;4995676;28;20493;-67
2022/05/17 12:09:12;;;;;;;5.63;2.57;;;34.60;32.30;;;;;;4995654;28;20432;-67
2022/05/17 12:11:52;;;;;;;3.87;2.00;;;34.70;32.80;;;;;;4995586;28;20427;-67
2022/05/17 12:14:24;;;;;;;5.37;2.43;;;34.70;31.80;;;;;;4995706;28;20436;-67
2022/05/17 12:16:55;;;;;;;5.87;2.30;;;34.80;32.40;;;;;;4994521;28;20475;-67
2022/05/17 12:19:29;;;;;;;8.70;3.00;;;35.00;32.30;;;;;;4995987;28;20472;-67
2022/05/17 12:21:58;;;;;;;5.83;2.37;;;35.40;31.80;;;;;;4995496;28;20428;-67
2022/05/17 12:24:47;;;;;;;6.27;3.13;;;35.90;31.20;;;;;;4995345;28;20475;-67
2022/05/17 12:27:24;;;;;;;4.00;2.40;;;36.90;30.80;;;;;;4995194;28;20471;-67
2022/05/17 12:32:40;;;;;;;5.87;2.33;;;37.70;28.30;;;;;;4995274;28;20192;-67
2022/05/17 12:35:08;;;;;;;5.22;2.25;;;38.20;27.70;;;;;;4995167;28;20207;-67
2022/05/17 12:37:41;;;;;;;4.60;2.33;;;38.60;27.10;;;;;;4995027;28;20228;-68
2022/05/17 12:43:03;;;;;;;6.38;2.65;;;39.80;27.00;;;;;;4995119;28;20263;-66
2022/05/17 12:45:34;;;;;;;3.17;1.75;;;41.10;25.30;;;;;;4994832;28;20192;-67
2022/05/17 12:48:03;;;;;;;4.60;2.00;;;42.10;23.50;;;;;;4994844;28;20233;-67
2022/05/17 12:50:40;;;;;;;2.83;1.75;;;43.00;22.60;;;;;;4994851;28;20205;-67
2022/05/17 12:53:14;;;;;;;6.43;1.90;;;43.70;21.60;;;;;;4994997;28;20207;-67
2022/05/17 12:55:57;;;;;;;4.82;1.75;;;44.30;21.10;;;;;;4994381;28;20646;-67
2022/05/17 12:58:23;;;;;;;3.30;1.55;;;44.90;20.30;;;;;;4994746;28;20232;-67
2022/05/17 13:00:53;;;;;;;6.18;1.83;;;45.50;19.50;;;;;;4994142;28;20263;-70
2022/05/17 13:03:23;;;;;;;3.00;1.90;;;46.00;19.10;;;;;;4994670;28;20585;-70
2022/05/17 13:05:52;;;;;;;3.28;1.52;;;46.50;19.00;;;;;;4994870;28;20199;-71
2022/05/17 13:08:22;;;;;;;3.13;1.52;;;47.00;18.40;;;;;;4994644;28;20702;-70
2022/05/17 13:11:01;;;;;;;2.85;1.42;;;47.50;17.50;;;;;;4995101;28;20206;-71
2022/05/17 13:13:31;;;;;;;5.40;1.65;;;47.70;17.30;;;;;;4995509;28;20185;-71
2022/05/17 13:16:01;;;;;;;2.30;1.67;;;48.00;16.90;;;;;;4995282;28;20211;-71
2022/05/17 13:18:34;;;;;;;2.58;1.50;;;48.40;16.70;;;;;;4995478;28;20247;-72
2022/05/17 13:21:03;;;;;;;2.03;1.17;;;48.60;16.70;;;;;;4995070;28;20215;-71
2022/05/17 13:23:31;;;;;;;2.20;1.10;;;48.30;16.10;;;;;;4995266;28;20212;-71